sensor_id;sensor_type;location;lat;lon;timestamp;P1;durP1;ratioP1;P2;durP2;ratioP2
65896;SDS011;52677;50.898;10.854;2024-03-07T00:00:49;23.42;;;13.30;;
65896;SDS011;52677;50.898;10.854;2024-03-07T00:02:54;27.38;;;15.38;;
65896;SDS011;52677;50.898;10.854;2024-03-07T00:04:54;24.15;;;14.82;;
65896;SDS011;52677;50.898;10.854;2024-03-07T00:06:54;27.88;;;15.10;;
65896;SDS011;52677;50.898;10.854;2024-03-07T00:08:55;23.73;;;14.15;;
65896;SDS011;52677;50.898;10.854;2024-03-07T00:10:55;29.98;;;15.15;;
65896;SDS011;52677;50.898;10.854;2024-03-07T00:12:56;26.00;;;14.77;;
65896;SDS011;52677;50.898;10.854;2024-03-07T00:14:56;24.45;;;14.07;;
65896;SDS011;52677;50.898;10.854;2024-03-07T00:16:57;25.25;;;15.02;;
65896;SDS011;52677;50.898;10.854;2024-03-07T00:18:59;25.58;;;14.85;;
65896;SDS011;52677;50.898;10.854;2024-03-07T00:21:00;24.13;;;13.80;;
65896;SDS011;52677;50.898;10.854;2024-03-07T00:23:00;25.00;;;14.25;;
65896;SDS011;52677;50.898;10.854;2024-03-07T00:25:03;31.23;;;16.17;;
65896;SDS011;52677;50.898;10.854;2024-03-07T00:27:07;23.77;;;14.05;;
65896;SDS011;52677;50.898;10.854;2024-03-07T00:29:07;31.00;;;14.30;;
65896;SDS011;52677;50.898;10.854;2024-03-07T00:31:07;27.00;;;14.38;;
65896;SDS011;52677;50.898;10.854;2024-03-07T00:33:08;26.60;;;15.43;;
65896;SDS011;52677;50.898;10.854;2024-03-07T00:35:09;27.75;;;14.27;;
65896;SDS011;52677;50.898;10.854;2024-03-07T00:37:09;29.00;;;15.30;;
65896;SDS011;52677;50.898;10.854;2024-03-07T00:39:10;28.33;;;15.15;;
65896;SDS011;52677;50.898;10.854;2024-03-07T00:41:13;27.83;;;15.40;;
65896;SDS011;52677;50.898;10.854;2024-03-07T00:43:14;31.35;;;16.10;;
65896;SDS011;52677;50.898;10.854;2024-03-07T00:45:15;28.80;;;14.95;;
65896;SDS011;52677;50.898;10.854;2024-03-07T00:47:15;27.88;;;14.88;;
65896;SDS011;52677;50.898;10.854;2024-03-07T00:51:18;26.77;;;14.48;;
65896;SDS011;52677;50.898;10.854;2024-03-07T00:53:18;25.17;;;13.90;;
65896;SDS011;52677;50.898;10.854;2024-03-07T00:55:19;27.63;;;15.02;;
65896;SDS011;52677;50.898;10.854;2024-03-07T00:57:19;26.23;;;15.15;;
65896;SDS011;52677;50.898;10.854;2024-03-07T00:59:19;29.67;;;14.48;;
65896;SDS011;52677;50.898;10.854;2024-03-07T01:01:20;28.88;;;16.52;;
65896;SDS011;52677;50.898;10.854;2024-03-07T01:03:21;28.52;;;15.82;;
65896;SDS011;52677;50.898;10.854;2024-03-07T01:05:21;29.85;;;16.90;;
65896;SDS011;52677;50.898;10.854;2024-03-07T01:07:22;27.33;;;14.65;;
65896;SDS011;52677;50.898;10.854;2024-03-07T01:09:24;28.95;;;15.43;;
65896;SDS011;52677;50.898;10.854;2024-03-07T01:11:24;29.15;;;14.65;;
65896;SDS011;52677;50.898;10.854;2024-03-07T01:13:25;27.00;;;15.38;;
65896;SDS011;52677;50.898;10.854;2024-03-07T01:15:26;30.00;;;15.55;;
65896;SDS011;52677;50.898;10.854;2024-03-07T01:17:26;30.38;;;15.43;;
65896;SDS011;52677;50.898;10.854;2024-03-07T01:19:26;26.83;;;14.35;;
65896;SDS011;52677;50.898;10.854;2024-03-07T01:21:27;25.25;;;14.18;;
65896;SDS011;52677;50.898;10.854;2024-03-07T01:23:27;28.80;;;15.48;;
65896;SDS011;52677;50.898;10.854;2024-03-07T01:25:28;27.67;;;15.13;;
65896;SDS011;52677;50.898;10.854;2024-03-07T01:27:28;24.50;;;14.20;;
65896;SDS011;52677;50.898;10.854;2024-03-07T01:29:28;27.17;;;14.48;;
65896;SDS011;52677;50.898;10.854;2024-03-07T01:31:29;28.77;;;15.23;;
65896;SDS011;52677;50.898;10.854;2024-03-07T01:33:29;31.42;;;15.55;;
65896;SDS011;52677;50.898;10.854;2024-03-07T01:35:30;29.80;;;15.38;;
65896;SDS011;52677;50.898;10.854;2024-03-07T01:37:30;29.00;;;15.18;;
65896;SDS011;52677;50.898;10.854;2024-03-07T01:39:31;25.30;;;14.05;;
65896;SDS011;52677;50.898;10.854;2024-03-07T01:41:31;27.60;;;14.55;;
65896;SDS011;52677;50.898;10.854;2024-03-07T01:43:31;26.55;;;14.70;;
65896;SDS011;52677;50.898;10.854;2024-03-07T01:45:32;26.65;;;14.63;;
65896;SDS011;52677;50.898;10.854;2024-03-07T01:47:32;29.38;;;15.32;;
65896;SDS011;52677;50.898;10.854;2024-03-07T01:49:32;28.83;;;15.82;;
65896;SDS011;52677;50.898;10.854;2024-03-07T01:51:33;29.00;;;15.30;;
65896;SDS011;52677;50.898;10.854;2024-03-07T01:53:35;27.23;;;14.98;;
65896;SDS011;52677;50.898;10.854;2024-03-07T01:55:36;24.70;;;14.75;;
65896;SDS011;52677;50.898;10.854;2024-03-07T01:57:37;27.30;;;14.90;;
65896;SDS011;52677;50.898;10.854;2024-03-07T01:59:38;27.40;;;14.67;;
65896;SDS011;52677;50.898;10.854;2024-03-07T02:01:39;32.40;;;17.00;;
65896;SDS011;52677;50.898;10.854;2024-03-07T02:03:40;28.70;;;15.50;;
65896;SDS011;52677;50.898;10.854;2024-03-07T02:05:40;28.90;;;14.13;;
65896;SDS011;52677;50.898;10.854;2024-03-07T02:07:42;29.65;;;15.48;;
65896;SDS011;52677;50.898;10.854;2024-03-07T02:09:43;29.50;;;15.00;;
65896;SDS011;52677;50.898;10.854;2024-03-07T02:11:43;27.95;;;14.85;;
65896;SDS011;52677;50.898;10.854;2024-03-07T02:13:43;29.33;;;14.23;;
65896;SDS011;52677;50.898;10.854;2024-03-07T02:15:44;30.17;;;15.45;;
65896;SDS011;52677;50.898;10.854;2024-03-07T02:17:44;31.58;;;15.77;;
65896;SDS011;52677;50.898;10.854;2024-03-07T02:19:45;27.55;;;14.63;;
65896;SDS011;52677;50.898;10.854;2024-03-07T02:21:46;30.75;;;15.75;;
65896;SDS011;52677;50.898;10.854;2024-03-07T02:23:46;29.15;;;15.10;;
65896;SDS011;52677;50.898;10.854;2024-03-07T02:25:47;33.10;;;15.63;;
65896;SDS011;52677;50.898;10.854;2024-03-07T02:27:47;32.22;;;15.05;;
65896;SDS011;52677;50.898;10.854;2024-03-07T02:29:48;28.98;;;14.95;;
65896;SDS011;52677;50.898;10.854;2024-03-07T02:31:49;27.73;;;13.65;;
65896;SDS011;52677;50.898;10.854;2024-03-07T02:33:49;26.05;;;14.50;;
65896;SDS011;52677;50.898;10.854;2024-03-07T02:35:49;29.63;;;14.90;;
65896;SDS011;52677;50.898;10.854;2024-03-07T02:37:50;25.63;;;14.52;;
65896;SDS011;52677;50.898;10.854;2024-03-07T02:39:50;29.63;;;16.70;;
65896;SDS011;52677;50.898;10.854;2024-03-07T02:41:51;28.60;;;14.88;;
65896;SDS011;52677;50.898;10.854;2024-03-07T02:43:51;28.20;;;15.40;;
65896;SDS011;52677;50.898;10.854;2024-03-07T02:45:53;25.90;;;13.98;;
65896;SDS011;52677;50.898;10.854;2024-03-07T02:47:53;29.08;;;14.55;;
65896;SDS011;52677;50.898;10.854;2024-03-07T02:49:53;28.00;;;15.02;;
65896;SDS011;52677;50.898;10.854;2024-03-07T02:51:54;30.58;;;15.85;;
65896;SDS011;52677;50.898;10.854;2024-03-07T02:53:54;27.00;;;15.02;;
65896;SDS011;52677;50.898;10.854;2024-03-07T02:55:54;29.90;;;14.93;;
65896;SDS011;52677;50.898;10.854;2024-03-07T02:57:55;25.80;;;13.95;;
65896;SDS011;52677;50.898;10.854;2024-03-07T02:59:58;26.40;;;14.48;;
65896;SDS011;52677;50.898;10.854;2024-03-07T03:01:59;27.30;;;15.10;;
65896;SDS011;52677;50.898;10.854;2024-03-07T03:04:00;28.27;;;14.98;;
65896;SDS011;52677;50.898;10.854;2024-03-07T03:06:00;24.98;;;14.57;;
65896;SDS011;52677;50.898;10.854;2024-03-07T03:08:00;24.92;;;13.35;;
65896;SDS011;52677;50.898;10.854;2024-03-07T03:10:01;30.73;;;14.95;;
65896;SDS011;52677;50.898;10.854;2024-03-07T03:12:05;25.67;;;13.30;;
65896;SDS011;52677;50.898;10.854;2024-03-07T03:14:06;28.77;;;14.55;;
65896;SDS011;52677;50.898;10.854;2024-03-07T03:16:06;27.65;;;14.80;;
65896;SDS011;52677;50.898;10.854;2024-03-07T03:18:07;30.52;;;14.75;;
65896;SDS011;52677;50.898;10.854;2024-03-07T03:20:07;26.58;;;14.85;;
65896;SDS011;52677;50.898;10.854;2024-03-07T03:22:15;33.53;;;15.52;;
65896;SDS011;52677;50.898;10.854;2024-03-07T03:24:15;29.02;;;15.60;;
65896;SDS011;52677;50.898;10.854;2024-03-07T03:26:15;27.90;;;15.30;;
65896;SDS011;52677;50.898;10.854;2024-03-07T03:28:16;25.25;;;13.75;;
65896;SDS011;52677;50.898;10.854;2024-03-07T03:30:18;26.98;;;14.50;;
65896;SDS011;52677;50.898;10.854;2024-03-07T03:32:19;26.85;;;14.25;;
65896;SDS011;52677;50.898;10.854;2024-03-07T03:34:19;22.75;;;13.73;;
65896;SDS011;52677;50.898;10.854;2024-03-07T03:36:19;28.20;;;14.35;;
65896;SDS011;52677;50.898;10.854;2024-03-07T03:38:20;26.83;;;14.35;;
65896;SDS011;52677;50.898;10.854;2024-03-07T03:40:21;28.15;;;14.82;;
65896;SDS011;52677;50.898;10.854;2024-03-07T03:42:21;31.17;;;15.45;;
65896;SDS011;52677;50.898;10.854;2024-03-07T03:44:22;26.42;;;14.90;;
65896;SDS011;52677;50.898;10.854;2024-03-07T03:46:22;27.73;;;14.32;;
65896;SDS011;52677;50.898;10.854;2024-03-07T03:48:23;32.10;;;15.23;;
65896;SDS011;52677;50.898;10.854;2024-03-07T03:50:23;27.25;;;14.77;;
65896;SDS011;52677;50.898;10.854;2024-03-07T03:52:24;27.35;;;15.13;;
65896;SDS011;52677;50.898;10.854;2024-03-07T03:54:26;28.42;;;14.10;;
65896;SDS011;52677;50.898;10.854;2024-03-07T03:56:26;29.60;;;15.10;;
65896;SDS011;52677;50.898;10.854;2024-03-07T03:58:27;29.58;;;15.27;;
65896;SDS011;52677;50.898;10.854;2024-03-07T04:00:28;30.52;;;15.57;;
65896;SDS011;52677;50.898;10.854;2024-03-07T04:02:28;28.42;;;16.08;;
65896;SDS011;52677;50.898;10.854;2024-03-07T04:04:28;29.58;;;16.00;;
65896;SDS011;52677;50.898;10.854;2024-03-07T04:06:29;31.90;;;17.25;;
65896;SDS011;52677;50.898;10.854;2024-03-07T04:08:29;32.88;;;17.67;;
65896;SDS011;52677;50.898;10.854;2024-03-07T04:10:29;29.50;;;16.23;;
65896;SDS011;52677;50.898;10.854;2024-03-07T04:12:29;28.48;;;14.98;;
65896;SDS011;52677;50.898;10.854;2024-03-07T04:14:30;28.55;;;14.25;;
65896;SDS011;52677;50.898;10.854;2024-03-07T04:18:33;25.25;;;13.60;;
65896;SDS011;52677;50.898;10.854;2024-03-07T04:20:33;26.98;;;14.75;;
65896;SDS011;52677;50.898;10.854;2024-03-07T04:22:33;29.23;;;15.25;;
65896;SDS011;52677;50.898;10.854;2024-03-07T04:24:35;24.13;;;14.65;;
65896;SDS011;52677;50.898;10.854;2024-03-07T04:26:35;25.88;;;14.23;;
65896;SDS011;52677;50.898;10.854;2024-03-07T04:28:36;30.00;;;15.32;;
65896;SDS011;52677;50.898;10.854;2024-03-07T04:30:36;30.38;;;14.82;;
65896;SDS011;52677;50.898;10.854;2024-03-07T04:32:37;26.55;;;14.20;;
65896;SDS011;52677;50.898;10.854;2024-03-07T04:34:38;26.73;;;14.70;;
65896;SDS011;52677;50.898;10.854;2024-03-07T04:36:39;28.90;;;15.23;;
65896;SDS011;52677;50.898;10.854;2024-03-07T04:38:39;30.35;;;16.55;;
65896;SDS011;52677;50.898;10.854;2024-03-07T04:40:44;28.70;;;15.90;;
65896;SDS011;52677;50.898;10.854;2024-03-07T04:42:45;29.77;;;15.48;;
65896;SDS011;52677;50.898;10.854;2024-03-07T04:44:49;30.30;;;13.93;;
65896;SDS011;52677;50.898;10.854;2024-03-07T04:46:49;32.45;;;15.70;;
65896;SDS011;52677;50.898;10.854;2024-03-07T04:48:55;28.65;;;15.63;;
65896;SDS011;52677;50.898;10.854;2024-03-07T04:50:55;29.00;;;16.05;;
65896;SDS011;52677;50.898;10.854;2024-03-07T04:52:57;30.42;;;15.82;;
65896;SDS011;52677;50.898;10.854;2024-03-07T04:54:57;28.80;;;16.23;;
65896;SDS011;52677;50.898;10.854;2024-03-07T04:56:57;31.73;;;17.35;;
65896;SDS011;52677;50.898;10.854;2024-03-07T04:58:58;35.22;;;16.73;;
65896;SDS011;52677;50.898;10.854;2024-03-07T05:00:58;31.42;;;16.45;;
65896;SDS011;52677;50.898;10.854;2024-03-07T05:02:59;33.28;;;17.48;;
65896;SDS011;52677;50.898;10.854;2024-03-07T05:04:59;36.40;;;16.58;;
65896;SDS011;52677;50.898;10.854;2024-03-07T05:06:59;38.30;;;16.70;;
65896;SDS011;52677;50.898;10.854;2024-03-07T05:09:03;33.63;;;15.93;;
65896;SDS011;52677;50.898;10.854;2024-03-07T05:11:04;35.60;;;16.30;;
65896;SDS011;52677;50.898;10.854;2024-03-07T05:13:04;30.50;;;16.05;;
65896;SDS011;52677;50.898;10.854;2024-03-07T05:15:06;36.78;;;17.02;;
65896;SDS011;52677;50.898;10.854;2024-03-07T05:17:09;36.25;;;17.85;;
65896;SDS011;52677;50.898;10.854;2024-03-07T05:19:10;35.88;;;17.17;;
65896;SDS011;52677;50.898;10.854;2024-03-07T05:21:10;36.10;;;16.73;;
65896;SDS011;52677;50.898;10.854;2024-03-07T05:23:29;29.77;;;15.93;;
65896;SDS011;52677;50.898;10.854;2024-03-07T05:25:31;29.73;;;16.88;;
65896;SDS011;52677;50.898;10.854;2024-03-07T05:27:31;32.10;;;16.20;;
65896;SDS011;52677;50.898;10.854;2024-03-07T05:29:33;39.93;;;18.23;;
65896;SDS011;52677;50.898;10.854;2024-03-07T05:31:34;36.67;;;17.35;;
65896;SDS011;52677;50.898;10.854;2024-03-07T05:33:35;36.25;;;17.63;;
65896;SDS011;52677;50.898;10.854;2024-03-07T05:35:35;36.50;;;17.00;;
65896;SDS011;52677;50.898;10.854;2024-03-07T05:37:37;33.58;;;16.95;;
65896;SDS011;52677;50.898;10.854;2024-03-07T05:39:37;35.38;;;17.13;;
65896;SDS011;52677;50.898;10.854;2024-03-07T05:41:38;32.80;;;16.40;;
65896;SDS011;52677;50.898;10.854;2024-03-07T05:43:39;38.25;;;19.05;;
65896;SDS011;52677;50.898;10.854;2024-03-07T05:45:40;35.33;;;17.92;;
65896;SDS011;52677;50.898;10.854;2024-03-07T05:47:41;37.63;;;18.37;;
65896;SDS011;52677;50.898;10.854;2024-03-07T05:49:42;35.35;;;18.50;;
65896;SDS011;52677;50.898;10.854;2024-03-07T05:51:43;40.00;;;18.85;;
65896;SDS011;52677;50.898;10.854;2024-03-07T05:53:45;33.42;;;17.00;;
65896;SDS011;52677;50.898;10.854;2024-03-07T05:55:45;40.47;;;18.63;;
65896;SDS011;52677;50.898;10.854;2024-03-07T05:57:45;40.70;;;18.60;;
65896;SDS011;52677;50.898;10.854;2024-03-07T05:59:46;39.72;;;19.02;;
65896;SDS011;52677;50.898;10.854;2024-03-07T06:01:48;39.30;;;18.77;;
65896;SDS011;52677;50.898;10.854;2024-03-07T06:03:48;40.78;;;18.45;;
65896;SDS011;52677;50.898;10.854;2024-03-07T06:05:48;40.75;;;18.70;;
65896;SDS011;52677;50.898;10.854;2024-03-07T06:07:49;44.58;;;18.27;;
65896;SDS011;52677;50.898;10.854;2024-03-07T06:09:49;41.40;;;18.90;;
65896;SDS011;52677;50.898;10.854;2024-03-07T06:11:50;40.95;;;19.25;;
65896;SDS011;52677;50.898;10.854;2024-03-07T06:13:50;39.90;;;18.45;;
65896;SDS011;52677;50.898;10.854;2024-03-07T06:15:51;42.70;;;17.95;;
65896;SDS011;52677;50.898;10.854;2024-03-07T06:17:51;40.42;;;19.13;;
65896;SDS011;52677;50.898;10.854;2024-03-07T06:19:51;39.97;;;19.08;;
65896;SDS011;52677;50.898;10.854;2024-03-07T06:21:52;51.92;;;20.77;;
65896;SDS011;52677;50.898;10.854;2024-03-07T06:23:54;42.40;;;19.05;;
65896;SDS011;52677;50.898;10.854;2024-03-07T06:26:03;40.58;;;19.00;;
65896;SDS011;52677;50.898;10.854;2024-03-07T06:28:12;45.38;;;19.73;;
65896;SDS011;52677;50.898;10.854;2024-03-07T06:30:14;39.08;;;18.08;;
65896;SDS011;52677;50.898;10.854;2024-03-07T06:32:17;40.33;;;18.85;;
65896;SDS011;52677;50.898;10.854;2024-03-07T06:34:18;44.40;;;21.20;;
65896;SDS011;52677;50.898;10.854;2024-03-07T06:36:18;46.65;;;20.35;;
65896;SDS011;52677;50.898;10.854;2024-03-07T06:38:18;43.20;;;20.30;;
65896;SDS011;52677;50.898;10.854;2024-03-07T06:40:19;42.05;;;19.80;;
65896;SDS011;52677;50.898;10.854;2024-03-07T06:42:22;41.20;;;20.45;;
65896;SDS011;52677;50.898;10.854;2024-03-07T06:44:22;46.75;;;19.73;;
65896;SDS011;52677;50.898;10.854;2024-03-07T06:46:23;44.03;;;20.27;;
65896;SDS011;52677;50.898;10.854;2024-03-07T06:48:24;43.17;;;19.73;;
65896;SDS011;52677;50.898;10.854;2024-03-07T06:50:25;41.78;;;19.65;;
65896;SDS011;52677;50.898;10.854;2024-03-07T06:52:25;47.80;;;20.05;;
65896;SDS011;52677;50.898;10.854;2024-03-07T06:54:25;47.03;;;20.90;;
65896;SDS011;52677;50.898;10.854;2024-03-07T06:56:26;49.78;;;21.35;;
65896;SDS011;52677;50.898;10.854;2024-03-07T06:58:26;42.60;;;19.25;;
65896;SDS011;52677;50.898;10.854;2024-03-07T07:00:26;55.70;;;22.38;;
65896;SDS011;52677;50.898;10.854;2024-03-07T07:02:27;40.20;;;18.98;;
65896;SDS011;52677;50.898;10.854;2024-03-07T07:04:27;52.40;;;23.10;;
65896;SDS011;52677;50.898;10.854;2024-03-07T07:06:38;42.95;;;20.35;;
65896;SDS011;52677;50.898;10.854;2024-03-07T07:08:39;45.72;;;21.08;;
65896;SDS011;52677;50.898;10.854;2024-03-07T07:10:40;53.63;;;23.38;;
65896;SDS011;52677;50.898;10.854;2024-03-07T07:12:40;41.05;;;19.52;;
65896;SDS011;52677;50.898;10.854;2024-03-07T07:14:40;48.25;;;19.92;;
65896;SDS011;52677;50.898;10.854;2024-03-07T07:16:41;41.95;;;18.95;;
65896;SDS011;52677;50.898;10.854;2024-03-07T07:18:45;53.75;;;22.08;;
65896;SDS011;52677;50.898;10.854;2024-03-07T07:20:45;45.67;;;21.67;;
65896;SDS011;52677;50.898;10.854;2024-03-07T07:22:47;42.85;;;20.38;;
65896;SDS011;52677;50.898;10.854;2024-03-07T07:24:48;44.72;;;20.05;;
65896;SDS011;52677;50.898;10.854;2024-03-07T07:26:48;44.95;;;20.70;;
65896;SDS011;52677;50.898;10.854;2024-03-07T07:28:48;43.55;;;21.05;;
65896;SDS011;52677;50.898;10.854;2024-03-07T07:30:49;45.63;;;21.83;;
65896;SDS011;52677;50.898;10.854;2024-03-07T07:32:52;45.38;;;20.77;;
65896;SDS011;52677;50.898;10.854;2024-03-07T07:34:56;43.45;;;18.13;;
65896;SDS011;52677;50.898;10.854;2024-03-07T07:36:56;40.88;;;19.02;;
65896;SDS011;52677;50.898;10.854;2024-03-07T07:38:58;42.90;;;18.88;;
65896;SDS011;52677;50.898;10.854;2024-03-07T07:40:58;45.85;;;21.00;;
65896;SDS011;52677;50.898;10.854;2024-03-07T07:42:58;40.80;;;18.08;;
65896;SDS011;52677;50.898;10.854;2024-03-07T07:45:01;41.42;;;19.10;;
65896;SDS011;52677;50.898;10.854;2024-03-07T07:47:01;42.67;;;17.80;;
65896;SDS011;52677;50.898;10.854;2024-03-07T07:49:01;39.88;;;19.48;;
65896;SDS011;52677;50.898;10.854;2024-03-07T07:51:02;45.03;;;22.40;;
65896;SDS011;52677;50.898;10.854;2024-03-07T07:55:09;44.97;;;20.10;;
65896;SDS011;52677;50.898;10.854;2024-03-07T07:57:15;32.78;;;16.05;;
65896;SDS011;52677;50.898;10.854;2024-03-07T07:59:16;33.63;;;17.45;;
65896;SDS011;52677;50.898;10.854;2024-03-07T08:01:16;35.55;;;17.25;;
65896;SDS011;52677;50.898;10.854;2024-03-07T08:03:17;36.53;;;16.20;;
65896;SDS011;52677;50.898;10.854;2024-03-07T08:05:24;33.30;;;15.35;;
65896;SDS011;52677;50.898;10.854;2024-03-07T08:07:27;40.13;;;17.23;;
65896;SDS011;52677;50.898;10.854;2024-03-07T08:09:27;37.33;;;16.77;;
65896;SDS011;52677;50.898;10.854;2024-03-07T08:11:27;43.35;;;20.63;;
65896;SDS011;52677;50.898;10.854;2024-03-07T08:13:28;40.33;;;18.25;;
65896;SDS011;52677;50.898;10.854;2024-03-07T08:15:30;49.92;;;22.45;;
65896;SDS011;52677;50.898;10.854;2024-03-07T08:17:31;40.92;;;19.70;;
65896;SDS011;52677;50.898;10.854;2024-03-07T08:19:31;41.33;;;19.23;;
65896;SDS011;52677;50.898;10.854;2024-03-07T08:21:32;39.58;;;20.63;;
65896;SDS011;52677;50.898;10.854;2024-03-07T08:23:32;38.22;;;19.58;;
65896;SDS011;52677;50.898;10.854;2024-03-07T08:25:33;45.60;;;18.95;;
65896;SDS011;52677;50.898;10.854;2024-03-07T08:27:33;42.90;;;18.52;;
65896;SDS011;52677;50.898;10.854;2024-03-07T08:29:33;51.10;;;19.90;;
65896;SDS011;52677;50.898;10.854;2024-03-07T08:31:34;46.67;;;19.65;;
65896;SDS011;52677;50.898;10.854;2024-03-07T08:33:34;46.63;;;19.45;;
65896;SDS011;52677;50.898;10.854;2024-03-07T08:35:34;49.17;;;21.30;;
65896;SDS011;52677;50.898;10.854;2024-03-07T08:37:44;52.53;;;22.95;;
65896;SDS011;52677;50.898;10.854;2024-03-07T08:39:45;48.85;;;21.83;;
65896;SDS011;52677;50.898;10.854;2024-03-07T08:41:46;51.22;;;22.50;;
65896;SDS011;52677;50.898;10.854;2024-03-07T08:43:46;47.35;;;21.48;;
65896;SDS011;52677;50.898;10.854;2024-03-07T08:45:47;50.15;;;22.38;;
65896;SDS011;52677;50.898;10.854;2024-03-07T08:47:48;48.28;;;21.00;;
65896;SDS011;52677;50.898;10.854;2024-03-07T08:49:49;63.90;;;22.17;;
65896;SDS011;52677;50.898;10.854;2024-03-07T08:51:51;52.25;;;20.98;;
65896;SDS011;52677;50.898;10.854;2024-03-07T08:53:51;48.40;;;20.75;;
65896;SDS011;52677;50.898;10.854;2024-03-07T08:55:52;44.63;;;20.52;;
65896;SDS011;52677;50.898;10.854;2024-03-07T08:57:52;49.75;;;21.30;;
65896;SDS011;52677;50.898;10.854;2024-03-07T08:59:53;58.90;;;20.60;;
65896;SDS011;52677;50.898;10.854;2024-03-07T09:01:53;41.83;;;19.95;;
65896;SDS011;52677;50.898;10.854;2024-03-07T09:03:53;46.05;;;21.60;;
65896;SDS011;52677;50.898;10.854;2024-03-07T09:05:54;41.40;;;19.05;;
65896;SDS011;52677;50.898;10.854;2024-03-07T09:07:55;40.50;;;19.40;;
65896;SDS011;52677;50.898;10.854;2024-03-07T09:09:56;41.17;;;19.92;;
65896;SDS011;52677;50.898;10.854;2024-03-07T09:11:57;47.35;;;19.85;;
65896;SDS011;52677;50.898;10.854;2024-03-07T09:13:57;37.83;;;18.90;;
65896;SDS011;52677;50.898;10.854;2024-03-07T09:15:57;42.03;;;19.48;;
65896;SDS011;52677;50.898;10.854;2024-03-07T09:17:58;41.30;;;18.58;;
65896;SDS011;52677;50.898;10.854;2024-03-07T09:19:58;41.08;;;19.55;;
65896;SDS011;52677;50.898;10.854;2024-03-07T09:21:59;35.88;;;16.80;;
65896;SDS011;52677;50.898;10.854;2024-03-07T09:24:00;31.83;;;16.75;;
65896;SDS011;52677;50.898;10.854;2024-03-07T09:26:00;38.50;;;17.42;;
65896;SDS011;52677;50.898;10.854;2024-03-07T09:28:02;37.38;;;18.02;;
65896;SDS011;52677;50.898;10.854;2024-03-07T09:30:04;33.00;;;17.45;;
65896;SDS011;52677;50.898;10.854;2024-03-07T09:32:05;33.08;;;16.52;;
65896;SDS011;52677;50.898;10.854;2024-03-07T09:34:08;32.95;;;16.23;;
65896;SDS011;52677;50.898;10.854;2024-03-07T09:36:09;32.50;;;17.35;;
65896;SDS011;52677;50.898;10.854;2024-03-07T09:38:09;32.97;;;17.85;;
65896;SDS011;52677;50.898;10.854;2024-03-07T09:40:10;34.20;;;16.25;;
65896;SDS011;52677;50.898;10.854;2024-03-07T09:42:11;30.10;;;16.00;;
65896;SDS011;52677;50.898;10.854;2024-03-07T09:44:14;27.42;;;14.35;;
65896;SDS011;52677;50.898;10.854;2024-03-07T09:46:22;29.17;;;14.82;;
65896;SDS011;52677;50.898;10.854;2024-03-07T09:48:24;26.73;;;15.38;;
65896;SDS011;52677;50.898;10.854;2024-03-07T09:50:29;25.35;;;14.27;;
65896;SDS011;52677;50.898;10.854;2024-03-07T09:52:30;31.38;;;13.93;;
65896;SDS011;52677;50.898;10.854;2024-03-07T09:54:30;24.45;;;13.52;;
65896;SDS011;52677;50.898;10.854;2024-03-07T09:56:31;22.05;;;12.93;;
65896;SDS011;52677;50.898;10.854;2024-03-07T09:58:32;25.70;;;13.00;;
65896;SDS011;52677;50.898;10.854;2024-03-07T10:00:33;25.00;;;13.07;;
65896;SDS011;52677;50.898;10.854;2024-03-07T10:02:36;21.67;;;12.73;;
65896;SDS011;52677;50.898;10.854;2024-03-07T10:04:43;25.08;;;13.07;;
65896;SDS011;52677;50.898;10.854;2024-03-07T10:06:48;23.15;;;13.07;;
65896;SDS011;52677;50.898;10.854;2024-03-07T10:08:50;26.55;;;14.63;;
65896;SDS011;52677;50.898;10.854;2024-03-07T10:10:51;26.50;;;13.60;;
65896;SDS011;52677;50.898;10.854;2024-03-07T10:12:53;28.38;;;17.00;;
65896;SDS011;52677;50.898;10.854;2024-03-07T10:14:55;20.42;;;13.38;;
65896;SDS011;52677;50.898;10.854;2024-03-07T10:16:59;23.25;;;12.27;;
65896;SDS011;52677;50.898;10.854;2024-03-07T10:18:59;28.50;;;13.65;;
65896;SDS011;52677;50.898;10.854;2024-03-07T10:21:04;21.27;;;12.07;;
65896;SDS011;52677;50.898;10.854;2024-03-07T10:23:04;22.98;;;12.95;;
65896;SDS011;52677;50.898;10.854;2024-03-07T10:25:04;26.40;;;13.70;;
65896;SDS011;52677;50.898;10.854;2024-03-07T10:27:05;19.52;;;12.10;;
65896;SDS011;52677;50.898;10.854;2024-03-07T10:29:09;24.75;;;12.63;;
65896;SDS011;52677;50.898;10.854;2024-03-07T10:31:09;20.77;;;11.23;;
65896;SDS011;52677;50.898;10.854;2024-03-07T10:33:11;21.87;;;10.93;;
65896;SDS011;52677;50.898;10.854;2024-03-07T10:35:12;19.77;;;11.43;;
65896;SDS011;52677;50.898;10.854;2024-03-07T10:37:14;15.93;;;10.40;;
65896;SDS011;52677;50.898;10.854;2024-03-07T10:39:19;18.40;;;9.75;;
65896;SDS011;52677;50.898;10.854;2024-03-07T10:41:23;18.60;;;9.90;;
65896;SDS011;52677;50.898;10.854;2024-03-07T10:43:28;17.65;;;9.27;;
65896;SDS011;52677;50.898;10.854;2024-03-07T10:45:29;18.63;;;8.10;;
65896;SDS011;52677;50.898;10.854;2024-03-07T10:47:30;17.25;;;10.00;;
65896;SDS011;52677;50.898;10.854;2024-03-07T10:49:36;14.70;;;8.98;;
65896;SDS011;52677;50.898;10.854;2024-03-07T10:51:44;22.02;;;11.40;;
65896;SDS011;52677;50.898;10.854;2024-03-07T10:53:59;20.85;;;11.75;;
65896;SDS011;52677;50.898;10.854;2024-03-07T11:01:02;24.08;;;13.80;;
65896;SDS011;52677;50.898;10.854;2024-03-07T11:03:05;25.88;;;13.15;;
65896;SDS011;52677;50.898;10.854;2024-03-07T11:05:08;23.80;;;13.55;;
65896;SDS011;52677;50.898;10.854;2024-03-07T11:07:12;20.58;;;12.38;;
65896;SDS011;52677;50.898;10.854;2024-03-07T11:09:13;22.13;;;13.02;;
65896;SDS011;52677;50.898;10.854;2024-03-07T11:11:13;25.83;;;13.07;;
65896;SDS011;52677;50.898;10.854;2024-03-07T11:13:14;22.95;;;13.35;;
65896;SDS011;52677;50.898;10.854;2024-03-07T11:15:16;21.08;;;12.93;;
65896;SDS011;52677;50.898;10.854;2024-03-07T11:17:20;19.35;;;12.55;;
65896;SDS011;52677;50.898;10.854;2024-03-07T11:19:25;25.10;;;12.07;;
65896;SDS011;52677;50.898;10.854;2024-03-07T11:21:40;18.60;;;11.63;;
65896;SDS011;52677;50.898;10.854;2024-03-07T11:23:41;19.05;;;12.25;;
65896;SDS011;52677;50.898;10.854;2024-03-07T11:25:45;22.05;;;12.77;;
65896;SDS011;52677;50.898;10.854;2024-03-07T11:28:00;21.30;;;12.68;;
65896;SDS011;52677;50.898;10.854;2024-03-07T11:30:05;20.88;;;12.75;;
65896;SDS011;52677;50.898;10.854;2024-03-07T11:32:09;21.77;;;12.23;;
65896;SDS011;52677;50.898;10.854;2024-03-07T11:34:11;25.98;;;12.88;;
65896;SDS011;52677;50.898;10.854;2024-03-07T11:36:19;22.60;;;13.77;;
65896;SDS011;52677;50.898;10.854;2024-03-07T11:38:49;20.45;;;13.05;;
65896;SDS011;52677;50.898;10.854;2024-03-07T11:40:52;21.25;;;13.20;;
65896;SDS011;52677;50.898;10.854;2024-03-07T11:42:56;19.85;;;12.80;;
65896;SDS011;52677;50.898;10.854;2024-03-07T11:44:59;19.85;;;12.52;;
65896;SDS011;52677;50.898;10.854;2024-03-07T11:47:03;20.40;;;12.63;;
65896;SDS011;52677;50.898;10.854;2024-03-07T11:49:08;25.15;;;12.40;;
65896;SDS011;52677;50.898;10.854;2024-03-07T11:51:13;22.73;;;12.43;;